Weather at Marymia Airport

Public forecast

Using degrees Celsius for public forecast. Weather courtesy of forecast.io.

Closest aviation weather report (METAR) to Marymia Airport

Closest report is Geraldton Airport, 349.8 nm (647.8 km) SW.

2024/05/18 23:00 (retrieved 37 minutes ago)

YGEL 182300Z AUTO 02012KT 9999 // NCD 15/04 Q1023 RF000/0000

Closest aviation forecast (TAF) to Marymia Airport

Closest forecast is Geraldton Airport, 349.8 nm (647.8 km) SW.

2024/05/18 22:00 Ammendment (retrieved 2 hours ago)

TAF AMD YGEL 182205Z 1822/1912 04016KT CAVOK FM190100 05018G30KT CAVOK FM190400 05014KT CAVOK